sensor_id;sensor_type;location;lat;lon;timestamp;P1;durP1;ratioP1;P2;durP2;ratioP2
36797;SDS011;22748;8.426;99.512;2022-10-22T00:01:20;10.52;;;6.30;;
36797;SDS011;22748;8.426;99.512;2022-10-22T00:03:49;13.48;;;5.55;;
36797;SDS011;22748;8.426;99.512;2022-10-22T00:06:19;14.00;;;6.15;;
36797;SDS011;22748;8.426;99.512;2022-10-22T00:08:50;11.23;;;5.95;;
36797;SDS011;22748;8.426;99.512;2022-10-22T00:11:19;17.17;;;8.63;;
36797;SDS011;22748;8.426;99.512;2022-10-22T00:13:52;17.08;;;6.97;;
36797;SDS011;22748;8.426;99.512;2022-10-22T00:16:22;13.15;;;7.32;;
36797;SDS011;22748;8.426;99.512;2022-10-22T00:18:54;10.50;;;7.15;;
36797;SDS011;22748;8.426;99.512;2022-10-22T00:21:25;12.68;;;6.75;;
36797;SDS011;22748;8.426;99.512;2022-10-22T00:23:59;18.40;;;14.65;;
36797;SDS011;22748;8.426;99.512;2022-10-22T00:26:29;12.50;;;9.65;;
36797;SDS011;22748;8.426;99.512;2022-10-22T00:29:00;11.55;;;7.05;;
36797;SDS011;22748;8.426;99.512;2022-10-22T00:31:29;15.35;;;8.95;;
36797;SDS011;22748;8.426;99.512;2022-10-22T00:34:02;14.18;;;6.68;;
36797;SDS011;22748;8.426;99.512;2022-10-22T00:36:33;22.02;;;10.10;;
36797;SDS011;22748;8.426;99.512;2022-10-22T00:39:06;20.50;;;11.57;;
36797;SDS011;22748;8.426;99.512;2022-10-22T00:41:38;36.47;;;19.98;;
36797;SDS011;22748;8.426;99.512;2022-10-22T00:47:11;35.80;;;21.88;;
36797;SDS011;22748;8.426;99.512;2022-10-22T00:49:41;36.53;;;26.65;;
36797;SDS011;22748;8.426;99.512;2022-10-22T00:52:11;38.30;;;26.20;;
36797;SDS011;22748;8.426;99.512;2022-10-22T00:54:42;34.20;;;24.48;;
36797;SDS011;22748;8.426;99.512;2022-10-22T00:57:12;31.33;;;25.25;;
36797;SDS011;22748;8.426;99.512;2022-10-22T00:59:42;36.45;;;26.73;;
36797;SDS011;22748;8.426;99.512;2022-10-22T01:02:11;33.58;;;24.52;;
36797;SDS011;22748;8.426;99.512;2022-10-22T01:04:42;32.58;;;24.58;;
36797;SDS011;22748;8.426;99.512;2022-10-22T01:07:15;31.73;;;23.42;;
36797;SDS011;22748;8.426;99.512;2022-10-22T01:09:52;26.90;;;21.42;;
36797;SDS011;22748;8.426;99.512;2022-10-22T01:12:37;25.40;;;16.58;;
36797;SDS011;22748;8.426;99.512;2022-10-22T01:15:16;22.63;;;15.95;;
36797;SDS011;22748;8.426;99.512;2022-10-22T01:17:54;24.02;;;15.43;;
36797;SDS011;22748;8.426;99.512;2022-10-22T01:20:36;21.50;;;10.55;;
36797;SDS011;22748;8.426;99.512;2022-10-22T01:23:18;20.38;;;11.63;;
36797;SDS011;22748;8.426;99.512;2022-10-22T01:26:08;20.15;;;8.73;;
36797;SDS011;22748;8.426;99.512;2022-10-22T01:28:53;20.05;;;9.65;;
36797;SDS011;22748;8.426;99.512;2022-10-22T01:31:30;18.38;;;8.00;;
36797;SDS011;22748;8.426;99.512;2022-10-22T01:34:03;12.82;;;6.13;;
36797;SDS011;22748;8.426;99.512;2022-10-22T01:36:35;9.35;;;4.32;;
36797;SDS011;22748;8.426;99.512;2022-10-22T01:39:08;10.03;;;5.00;;
36797;SDS011;22748;8.426;99.512;2022-10-22T01:41:43;8.18;;;4.00;;
36797;SDS011;22748;8.426;99.512;2022-10-22T01:44:24;14.73;;;4.75;;
36797;SDS011;22748;8.426;99.512;2022-10-22T01:49:32;11.45;;;4.70;;
36797;SDS011;22748;8.426;99.512;2022-10-22T01:52:29;12.30;;;4.32;;
36797;SDS011;22748;8.426;99.512;2022-10-22T01:55:13;15.27;;;4.72;;
36797;SDS011;22748;8.426;99.512;2022-10-22T01:57:52;8.82;;;4.30;;
36797;SDS011;22748;8.426;99.512;2022-10-22T02:00:36;9.43;;;4.43;;
36797;SDS011;22748;8.426;99.512;2022-10-22T02:03:12;12.45;;;3.40;;
36797;SDS011;22748;8.426;99.512;2022-10-22T02:05:49;8.23;;;4.00;;
36797;SDS011;22748;8.426;99.512;2022-10-22T02:08:26;9.48;;;3.72;;
36797;SDS011;22748;8.426;99.512;2022-10-22T02:11:00;8.68;;;3.95;;
36797;SDS011;22748;8.426;99.512;2022-10-22T02:13:32;7.40;;;4.05;;
36797;SDS011;22748;8.426;99.512;2022-10-22T02:16:10;12.55;;;5.13;;
36797;SDS011;22748;8.426;99.512;2022-10-22T02:18:46;9.63;;;4.65;;
36797;SDS011;22748;8.426;99.512;2022-10-22T02:21:23;11.02;;;5.78;;
36797;SDS011;22748;8.426;99.512;2022-10-22T02:23:55;15.40;;;6.07;;
36797;SDS011;22748;8.426;99.512;2022-10-22T02:26:31;10.13;;;5.82;;
36797;SDS011;22748;8.426;99.512;2022-10-22T02:29:07;24.13;;;8.00;;
36797;SDS011;22748;8.426;99.512;2022-10-22T02:31:45;14.60;;;6.95;;
36797;SDS011;22748;8.426;99.512;2022-10-22T02:34:18;9.90;;;5.97;;
36797;SDS011;22748;8.426;99.512;2022-10-22T02:36:54;17.38;;;5.38;;
36797;SDS011;22748;8.426;99.512;2022-10-22T02:39:28;11.55;;;4.78;;
36797;SDS011;22748;8.426;99.512;2022-10-22T02:42:00;11.23;;;3.80;;
36797;SDS011;22748;8.426;99.512;2022-10-22T02:44:32;11.43;;;4.50;;
36797;SDS011;22748;8.426;99.512;2022-10-22T02:47:08;8.52;;;4.70;;
36797;SDS011;22748;8.426;99.512;2022-10-22T02:49:37;9.98;;;4.03;;
36797;SDS011;22748;8.426;99.512;2022-10-22T02:52:07;9.98;;;3.75;;
36797;SDS011;22748;8.426;99.512;2022-10-22T02:54:38;8.48;;;3.22;;
36797;SDS011;22748;8.426;99.512;2022-10-22T02:57:10;10.10;;;3.45;;
36797;SDS011;22748;8.426;99.512;2022-10-22T02:59:41;7.53;;;2.70;;
36797;SDS011;22748;8.426;99.512;2022-10-22T03:02:14;8.65;;;3.65;;
36797;SDS011;22748;8.426;99.512;2022-10-22T03:04:44;6.75;;;3.00;;
36797;SDS011;22748;8.426;99.512;2022-10-22T03:07:14;6.82;;;3.05;;
36797;SDS011;22748;8.426;99.512;2022-10-22T03:09:43;7.93;;;3.20;;
36797;SDS011;22748;8.426;99.512;2022-10-22T03:12:14;8.63;;;3.72;;
36797;SDS011;22748;8.426;99.512;2022-10-22T03:14:45;7.15;;;3.65;;
36797;SDS011;22748;8.426;99.512;2022-10-22T03:17:18;7.43;;;3.53;;
36797;SDS011;22748;8.426;99.512;2022-10-22T03:19:48;9.27;;;3.90;;
36797;SDS011;22748;8.426;99.512;2022-10-22T03:22:20;8.10;;;4.28;;
36797;SDS011;22748;8.426;99.512;2022-10-22T03:24:54;13.48;;;6.03;;
36797;SDS011;22748;8.426;99.512;2022-10-22T03:27:29;13.88;;;6.53;;
36797;SDS011;22748;8.426;99.512;2022-10-22T03:29:58;9.05;;;4.60;;
36797;SDS011;22748;8.426;99.512;2022-10-22T03:32:30;13.10;;;6.00;;
36797;SDS011;22748;8.426;99.512;2022-10-22T03:35:00;13.38;;;7.18;;
36797;SDS011;22748;8.426;99.512;2022-10-22T03:37:32;7.07;;;4.60;;
36797;SDS011;22748;8.426;99.512;2022-10-22T03:40:03;9.13;;;3.50;;
36797;SDS011;22748;8.426;99.512;2022-10-22T03:42:39;7.18;;;3.67;;
36797;SDS011;22748;8.426;99.512;2022-10-22T03:45:12;11.20;;;4.25;;
36797;SDS011;22748;8.426;99.512;2022-10-22T03:47:48;7.60;;;3.63;;
36797;SDS011;22748;8.426;99.512;2022-10-22T03:50:17;11.90;;;4.15;;
36797;SDS011;22748;8.426;99.512;2022-10-22T03:52:52;7.50;;;4.13;;
36797;SDS011;22748;8.426;99.512;2022-10-22T03:55:47;8.40;;;3.90;;
36797;SDS011;22748;8.426;99.512;2022-10-22T03:58:22;11.25;;;4.30;;
36797;SDS011;22748;8.426;99.512;2022-10-22T04:00:51;7.25;;;4.15;;
36797;SDS011;22748;8.426;99.512;2022-10-22T04:03:25;11.38;;;4.18;;
36797;SDS011;22748;8.426;99.512;2022-10-22T04:06:00;7.90;;;4.00;;
36797;SDS011;22748;8.426;99.512;2022-10-22T04:08:32;12.93;;;4.60;;
36797;SDS011;22748;8.426;99.512;2022-10-22T04:11:27;12.23;;;4.80;;
36797;SDS011;22748;8.426;99.512;2022-10-22T04:13:59;11.05;;;4.80;;
36797;SDS011;22748;8.426;99.512;2022-10-22T04:16:34;14.38;;;4.72;;
36797;SDS011;22748;8.426;99.512;2022-10-22T04:19:06;14.38;;;4.15;;
36797;SDS011;22748;8.426;99.512;2022-10-22T04:21:36;6.80;;;2.95;;
36797;SDS011;22748;8.426;99.512;2022-10-22T04:24:07;5.70;;;3.03;;
36797;SDS011;22748;8.426;99.512;2022-10-22T04:29:09;8.68;;;2.75;;
36797;SDS011;22748;8.426;99.512;2022-10-22T04:31:42;14.70;;;3.20;;
36797;SDS011;22748;8.426;99.512;2022-10-22T04:34:15;6.82;;;3.20;;
36797;SDS011;22748;8.426;99.512;2022-10-22T04:36:49;7.57;;;2.60;;
36797;SDS011;22748;8.426;99.512;2022-10-22T04:39:22;7.85;;;3.25;;
36797;SDS011;22748;8.426;99.512;2022-10-22T04:44:28;5.90;;;2.15;;
36797;SDS011;22748;8.426;99.512;2022-10-22T04:49:35;11.68;;;3.30;;
36797;SDS011;22748;8.426;99.512;2022-10-22T04:52:10;12.00;;;3.20;;
36797;SDS011;22748;8.426;99.512;2022-10-22T04:54:40;7.72;;;2.85;;
36797;SDS011;22748;8.426;99.512;2022-10-22T04:57:10;14.00;;;4.50;;
36797;SDS011;22748;8.426;99.512;2022-10-22T04:59:40;9.93;;;3.33;;
36797;SDS011;22748;8.426;99.512;2022-10-22T05:02:11;5.45;;;3.05;;
36797;SDS011;22748;8.426;99.512;2022-10-22T05:04:45;8.02;;;2.63;;
36797;SDS011;22748;8.426;99.512;2022-10-22T05:07:15;8.10;;;2.53;;
36797;SDS011;22748;8.426;99.512;2022-10-22T05:09:45;6.35;;;2.65;;
36797;SDS011;22748;8.426;99.512;2022-10-22T05:12:16;10.73;;;3.55;;
36797;SDS011;22748;8.426;99.512;2022-10-22T05:14:47;15.40;;;3.63;;
36797;SDS011;22748;8.426;99.512;2022-10-22T05:17:19;9.40;;;2.85;;
36797;SDS011;22748;8.426;99.512;2022-10-22T05:19:51;13.23;;;3.13;;
36797;SDS011;22748;8.426;99.512;2022-10-22T05:22:21;14.98;;;5.90;;
36797;SDS011;22748;8.426;99.512;2022-10-22T05:24:52;10.20;;;4.65;;
36797;SDS011;22748;8.426;99.512;2022-10-22T05:27:22;9.18;;;4.03;;
36797;SDS011;22748;8.426;99.512;2022-10-22T05:29:55;9.23;;;3.38;;
36797;SDS011;22748;8.426;99.512;2022-10-22T05:32:26;8.52;;;3.10;;
36797;SDS011;22748;8.426;99.512;2022-10-22T05:34:58;14.98;;;3.53;;
36797;SDS011;22748;8.426;99.512;2022-10-22T05:37:29;6.90;;;2.05;;
36797;SDS011;22748;8.426;99.512;2022-10-22T05:40:00;10.82;;;2.70;;
36797;SDS011;22748;8.426;99.512;2022-10-22T05:45:02;7.25;;;2.33;;
36797;SDS011;22748;8.426;99.512;2022-10-22T05:47:35;7.68;;;2.80;;
36797;SDS011;22748;8.426;99.512;2022-10-22T05:52:38;9.48;;;3.15;;
36797;SDS011;22748;8.426;99.512;2022-10-22T05:55:08;9.13;;;2.60;;
36797;SDS011;22748;8.426;99.512;2022-10-22T05:57:40;10.25;;;5.95;;
36797;SDS011;22748;8.426;99.512;2022-10-22T06:00:11;7.90;;;4.65;;
36797;SDS011;22748;8.426;99.512;2022-10-22T06:02:44;9.57;;;4.35;;
36797;SDS011;22748;8.426;99.512;2022-10-22T06:05:21;6.40;;;2.83;;
36797;SDS011;22748;8.426;99.512;2022-10-22T06:07:53;7.25;;;3.38;;
36797;SDS011;22748;8.426;99.512;2022-10-22T06:10:26;9.07;;;3.03;;
36797;SDS011;22748;8.426;99.512;2022-10-22T06:12:58;6.47;;;2.95;;
36797;SDS011;22748;8.426;99.512;2022-10-22T06:15:30;6.78;;;2.92;;
36797;SDS011;22748;8.426;99.512;2022-10-22T06:18:02;7.28;;;2.60;;
36797;SDS011;22748;8.426;99.512;2022-10-22T06:20:35;8.70;;;3.33;;
36797;SDS011;22748;8.426;99.512;2022-10-22T06:23:06;7.90;;;3.10;;
36797;SDS011;22748;8.426;99.512;2022-10-22T06:28:10;8.55;;;3.65;;
36797;SDS011;22748;8.426;99.512;2022-10-22T06:30:42;8.77;;;3.13;;
36797;SDS011;22748;8.426;99.512;2022-10-22T06:33:13;7.82;;;3.25;;
36797;SDS011;22748;8.426;99.512;2022-10-22T06:38:17;8.43;;;4.03;;
36797;SDS011;22748;8.426;99.512;2022-10-22T06:40:48;9.07;;;4.22;;
36797;SDS011;22748;8.426;99.512;2022-10-22T06:43:18;12.98;;;5.13;;
36797;SDS011;22748;8.426;99.512;2022-10-22T06:45:50;7.95;;;4.80;;
36797;SDS011;22748;8.426;99.512;2022-10-22T06:48:19;11.95;;;5.03;;
36797;SDS011;22748;8.426;99.512;2022-10-22T06:50:50;11.23;;;4.47;;
36797;SDS011;22748;8.426;99.512;2022-10-22T06:53:21;10.93;;;5.20;;
36797;SDS011;22748;8.426;99.512;2022-10-22T06:58:23;9.73;;;4.57;;
36797;SDS011;22748;8.426;99.512;2022-10-22T07:01:02;8.27;;;4.80;;
36797;SDS011;22748;8.426;99.512;2022-10-22T07:03:35;13.45;;;4.20;;
36797;SDS011;22748;8.426;99.512;2022-10-22T07:06:08;10.77;;;4.60;;
36797;SDS011;22748;8.426;99.512;2022-10-22T07:08:41;9.27;;;4.30;;
36797;SDS011;22748;8.426;99.512;2022-10-22T07:11:13;11.10;;;4.80;;
36797;SDS011;22748;8.426;99.512;2022-10-22T07:13:45;10.15;;;5.13;;
36797;SDS011;22748;8.426;99.512;2022-10-22T07:16:16;8.07;;;4.38;;
36797;SDS011;22748;8.426;99.512;2022-10-22T07:18:46;13.63;;;5.00;;
36797;SDS011;22748;8.426;99.512;2022-10-22T07:21:17;12.60;;;6.07;;
36797;SDS011;22748;8.426;99.512;2022-10-22T07:23:50;6.80;;;3.38;;
36797;SDS011;22748;8.426;99.512;2022-10-22T07:26:19;8.05;;;3.35;;
36797;SDS011;22748;8.426;99.512;2022-10-22T07:28:51;9.02;;;2.90;;
36797;SDS011;22748;8.426;99.512;2022-10-22T07:31:23;6.25;;;3.13;;
36797;SDS011;22748;8.426;99.512;2022-10-22T07:33:54;7.53;;;3.50;;
36797;SDS011;22748;8.426;99.512;2022-10-22T07:36:26;4.43;;;2.85;;
36797;SDS011;22748;8.426;99.512;2022-10-22T07:38:57;5.50;;;3.05;;
36797;SDS011;22748;8.426;99.512;2022-10-22T07:41:27;6.55;;;3.05;;
36797;SDS011;22748;8.426;99.512;2022-10-22T07:43:57;7.13;;;3.05;;
36797;SDS011;22748;8.426;99.512;2022-10-22T07:46:29;10.60;;;3.08;;
36797;SDS011;22748;8.426;99.512;2022-10-22T07:49:00;7.18;;;2.70;;
36797;SDS011;22748;8.426;99.512;2022-10-22T07:51:33;6.38;;;2.28;;
36797;SDS011;22748;8.426;99.512;2022-10-22T07:54:03;5.15;;;2.40;;
36797;SDS011;22748;8.426;99.512;2022-10-22T07:56:34;4.38;;;2.25;;
36797;SDS011;22748;8.426;99.512;2022-10-22T07:59:04;5.20;;;2.40;;
36797;SDS011;22748;8.426;99.512;2022-10-22T08:01:35;6.40;;;2.50;;
36797;SDS011;22748;8.426;99.512;2022-10-22T08:06:38;5.88;;;3.03;;
36797;SDS011;22748;8.426;99.512;2022-10-22T08:09:07;7.40;;;2.92;;
36797;SDS011;22748;8.426;99.512;2022-10-22T08:11:38;8.95;;;4.13;;
36797;SDS011;22748;8.426;99.512;2022-10-22T08:14:09;6.88;;;3.40;;
36797;SDS011;22748;8.426;99.512;2022-10-22T08:16:38;9.27;;;3.05;;
36797;SDS011;22748;8.426;99.512;2022-10-22T08:19:08;16.60;;;6.72;;
36797;SDS011;22748;8.426;99.512;2022-10-22T08:21:39;12.37;;;5.70;;
36797;SDS011;22748;8.426;99.512;2022-10-22T08:24:12;10.23;;;4.68;;
36797;SDS011;22748;8.426;99.512;2022-10-22T08:26:44;9.50;;;3.92;;
36797;SDS011;22748;8.426;99.512;2022-10-22T08:29:16;6.80;;;3.92;;
36797;SDS011;22748;8.426;99.512;2022-10-22T08:31:49;7.90;;;3.95;;
36797;SDS011;22748;8.426;99.512;2022-10-22T08:34:20;6.63;;;3.75;;
36797;SDS011;22748;8.426;99.512;2022-10-22T08:36:52;7.28;;;4.22;;
36797;SDS011;22748;8.426;99.512;2022-10-22T08:39:23;10.15;;;5.32;;
36797;SDS011;22748;8.426;99.512;2022-10-22T08:41:58;9.95;;;4.80;;
36797;SDS011;22748;8.426;99.512;2022-10-22T08:44:47;7.13;;;4.40;;
36797;SDS011;22748;8.426;99.512;2022-10-22T08:47:33;6.18;;;3.85;;
36797;SDS011;22748;8.426;99.512;2022-10-22T08:50:20;6.40;;;4.35;;
36797;SDS011;22748;8.426;99.512;2022-10-22T08:52:56;6.57;;;4.75;;
36797;SDS011;22748;8.426;99.512;2022-10-22T08:55:31;7.88;;;4.00;;
36797;SDS011;22748;8.426;99.512;2022-10-22T08:58:04;5.88;;;3.20;;
36797;SDS011;22748;8.426;99.512;2022-10-22T09:00:44;8.73;;;3.75;;
36797;SDS011;22748;8.426;99.512;2022-10-22T09:03:24;7.22;;;3.65;;
36797;SDS011;22748;8.426;99.512;2022-10-22T09:06:04;8.90;;;3.42;;
36797;SDS011;22748;8.426;99.512;2022-10-22T09:08:39;10.18;;;4.35;;
36797;SDS011;22748;8.426;99.512;2022-10-22T09:11:16;8.85;;;3.60;;
36797;SDS011;22748;8.426;99.512;2022-10-22T09:13:52;8.15;;;3.53;;
36797;SDS011;22748;8.426;99.512;2022-10-22T09:16:25;7.35;;;4.13;;
36797;SDS011;22748;8.426;99.512;2022-10-22T09:19:07;8.80;;;4.00;;
36797;SDS011;22748;8.426;99.512;2022-10-22T09:21:51;6.05;;;3.70;;
36797;SDS011;22748;8.426;99.512;2022-10-22T09:24:31;8.63;;;3.60;;
36797;SDS011;22748;8.426;99.512;2022-10-22T09:27:09;13.45;;;7.10;;
36797;SDS011;22748;8.426;99.512;2022-10-22T09:29:42;10.05;;;5.95;;
36797;SDS011;22748;8.426;99.512;2022-10-22T09:32:12;7.90;;;4.45;;
36797;SDS011;22748;8.426;99.512;2022-10-22T09:34:43;6.60;;;4.00;;
36797;SDS011;22748;8.426;99.512;2022-10-22T09:37:17;7.03;;;4.88;;
36797;SDS011;22748;8.426;99.512;2022-10-22T09:39:53;8.07;;;4.32;;
36797;SDS011;22748;8.426;99.512;2022-10-22T09:42:24;16.58;;;8.20;;
36797;SDS011;22748;8.426;99.512;2022-10-22T09:44:57;13.45;;;6.75;;
36797;SDS011;22748;8.426;99.512;2022-10-22T09:47:28;9.30;;;5.55;;
36797;SDS011;22748;8.426;99.512;2022-10-22T09:50:16;8.93;;;5.53;;
36797;SDS011;22748;8.426;99.512;2022-10-22T09:52:53;9.85;;;6.05;;
36797;SDS011;22748;8.426;99.512;2022-10-22T09:55:30;9.32;;;4.57;;
36797;SDS011;22748;8.426;99.512;2022-10-22T09:58:01;25.35;;;6.20;;
36797;SDS011;22748;8.426;99.512;2022-10-22T10:00:31;11.85;;;4.53;;
36797;SDS011;22748;8.426;99.512;2022-10-22T10:03:01;15.15;;;4.43;;
36797;SDS011;22748;8.426;99.512;2022-10-22T10:05:31;9.85;;;4.07;;
36797;SDS011;22748;8.426;99.512;2022-10-22T10:08:07;7.95;;;3.92;;
36797;SDS011;22748;8.426;99.512;2022-10-22T10:10:45;11.20;;;6.15;;
36797;SDS011;22748;8.426;99.512;2022-10-22T10:13:27;10.43;;;7.10;;
36797;SDS011;22748;8.426;99.512;2022-10-22T10:16:07;11.10;;;7.50;;
36797;SDS011;22748;8.426;99.512;2022-10-22T10:18:55;17.90;;;12.73;;
36797;SDS011;22748;8.426;99.512;2022-10-22T10:21:46;9.27;;;4.78;;
36797;SDS011;22748;8.426;99.512;2022-10-22T10:24:25;7.40;;;3.72;;
36797;SDS011;22748;8.426;99.512;2022-10-22T10:27:09;11.93;;;3.67;;
36797;SDS011;22748;8.426;99.512;2022-10-22T10:30:05;6.55;;;3.72;;
36797;SDS011;22748;8.426;99.512;2022-10-22T10:32:49;5.78;;;3.58;;
36797;SDS011;22748;8.426;99.512;2022-10-22T10:35:29;18.30;;;8.55;;
36797;SDS011;22748;8.426;99.512;2022-10-22T10:38:15;13.98;;;6.13;;
36797;SDS011;22748;8.426;99.512;2022-10-22T10:40:59;13.30;;;6.82;;
36797;SDS011;22748;8.426;99.512;2022-10-22T10:43:43;11.85;;;5.55;;
36797;SDS011;22748;8.426;99.512;2022-10-22T10:46:26;10.05;;;4.75;;
36797;SDS011;22748;8.426;99.512;2022-10-22T10:49:13;14.73;;;4.35;;
36797;SDS011;22748;8.426;99.512;2022-10-22T10:51:48;12.13;;;4.15;;
36797;SDS011;22748;8.426;99.512;2022-10-22T10:54:28;10.63;;;3.90;;
36797;SDS011;22748;8.426;99.512;2022-10-22T10:57:07;8.85;;;4.38;;
36797;SDS011;22748;8.426;99.512;2022-10-22T10:59:56;8.73;;;5.30;;
36797;SDS011;22748;8.426;99.512;2022-10-22T11:02:37;10.68;;;4.07;;
36797;SDS011;22748;8.426;99.512;2022-10-22T11:05:29;9.38;;;5.05;;
36797;SDS011;22748;8.426;99.512;2022-10-22T11:08:09;9.85;;;4.97;;
36797;SDS011;22748;8.426;99.512;2022-10-22T11:10:43;9.40;;;4.40;;
36797;SDS011;22748;8.426;99.512;2022-10-22T11:13:21;7.05;;;3.92;;
36797;SDS011;22748;8.426;99.512;2022-10-22T11:16:02;5.88;;;3.40;;
36797;SDS011;22748;8.426;99.512;2022-10-22T11:18:39;12.25;;;4.28;;
36797;SDS011;22748;8.426;99.512;2022-10-22T11:21:16;10.45;;;3.70;;
36797;SDS011;22748;8.426;99.512;2022-10-22T11:23:55;8.52;;;3.63;;
36797;SDS011;22748;8.426;99.512;2022-10-22T11:26:36;5.25;;;3.17;;
36797;SDS011;22748;8.426;99.512;2022-10-22T11:29:15;5.70;;;3.30;;
36797;SDS011;22748;8.426;99.512;2022-10-22T11:31:52;6.43;;;3.08;;
36797;SDS011;22748;8.426;99.512;2022-10-22T11:34:24;8.15;;;3.47;;
36797;SDS011;22748;8.426;99.512;2022-10-22T11:37:02;9.45;;;3.85;;
36797;SDS011;22748;8.426;99.512;2022-10-22T11:39:38;7.50;;;3.90;;
36797;SDS011;22748;8.426;99.512;2022-10-22T11:42:17;6.35;;;3.80;;
36797;SDS011;22748;8.426;99.512;2022-10-22T11:44:58;13.60;;;6.40;;
36797;SDS011;22748;8.426;99.512;2022-10-22T11:47:33;15.38;;;6.43;;
36797;SDS011;22748;8.426;99.512;2022-10-22T11:50:17;12.70;;;8.13;;
36797;SDS011;22748;8.426;99.512;2022-10-22T11:52:54;11.73;;;7.13;;
36797;SDS011;22748;8.426;99.512;2022-10-22T11:55:41;7.70;;;5.47;;
36797;SDS011;22748;8.426;99.512;2022-10-22T12:06:53;12.27;;;7.10;;
36797;SDS011;22748;8.426;99.512;2022-10-22T12:09:25;8.32;;;7.18;;
36797;SDS011;22748;8.426;99.512;2022-10-22T12:12:02;18.17;;;9.88;;
36797;SDS011;22748;8.426;99.512;2022-10-22T12:14:52;17.02;;;9.10;;
36797;SDS011;22748;8.426;99.512;2022-10-22T12:17:24;12.40;;;7.53;;
36797;SDS011;22748;8.426;99.512;2022-10-22T12:20:00;9.68;;;5.50;;
36797;SDS011;22748;8.426;99.512;2022-10-22T12:22:36;10.45;;;4.93;;
36797;SDS011;22748;8.426;99.512;2022-10-22T12:25:11;9.43;;;5.20;;
36797;SDS011;22748;8.426;99.512;2022-10-22T12:27:49;7.72;;;4.40;;
36797;SDS011;22748;8.426;99.512;2022-10-22T12:30:22;7.10;;;3.65;;
36797;SDS011;22748;8.426;99.512;2022-10-22T12:32:55;6.47;;;3.65;;
36797;SDS011;22748;8.426;99.512;2022-10-22T12:35:28;9.05;;;3.72;;
36797;SDS011;22748;8.426;99.512;2022-10-22T12:38:00;8.88;;;4.97;;
36797;SDS011;22748;8.426;99.512;2022-10-22T12:40:33;6.15;;;3.90;;
36797;SDS011;22748;8.426;99.512;2022-10-22T12:43:06;4.78;;;3.95;;
36797;SDS011;22748;8.426;99.512;2022-10-22T12:45:39;17.40;;;12.30;;
36797;SDS011;22748;8.426;99.512;2022-10-22T12:48:15;48.70;;;32.25;;
36797;SDS011;22748;8.426;99.512;2022-10-22T12:50:50;30.00;;;21.88;;
36797;SDS011;22748;8.426;99.512;2022-10-22T12:53:23;24.92;;;18.30;;
36797;SDS011;22748;8.426;99.512;2022-10-22T12:55:59;15.90;;;10.55;;
36797;SDS011;22748;8.426;99.512;2022-10-22T12:58:34;21.00;;;14.27;;
36797;SDS011;22748;8.426;99.512;2022-10-22T13:01:10;20.58;;;13.85;;
36797;SDS011;22748;8.426;99.512;2022-10-22T13:03:44;18.05;;;11.18;;
36797;SDS011;22748;8.426;99.512;2022-10-22T13:06:24;21.63;;;13.93;;
36797;SDS011;22748;8.426;99.512;2022-10-22T13:08:56;25.40;;;17.20;;
36797;SDS011;22748;8.426;99.512;2022-10-22T13:11:37;23.52;;;15.43;;
36797;SDS011;22748;8.426;99.512;2022-10-22T13:14:17;18.90;;;12.35;;
36797;SDS011;22748;8.426;99.512;2022-10-22T13:19:36;18.52;;;9.50;;
36797;SDS011;22748;8.426;99.512;2022-10-22T13:22:25;12.15;;;9.73;;
36797;SDS011;22748;8.426;99.512;2022-10-22T13:24:58;16.42;;;11.20;;
36797;SDS011;22748;8.426;99.512;2022-10-22T13:27:33;14.85;;;10.73;;
36797;SDS011;22748;8.426;99.512;2022-10-22T13:30:18;26.67;;;19.95;;
36797;SDS011;22748;8.426;99.512;2022-10-22T13:32:51;32.28;;;25.45;;
36797;SDS011;22748;8.426;99.512;2022-10-22T13:35:24;26.02;;;17.75;;
36797;SDS011;22748;8.426;99.512;2022-10-22T13:37:59;17.50;;;11.48;;
36797;SDS011;22748;8.426;99.512;2022-10-22T13:40:30;18.13;;;9.82;;
36797;SDS011;22748;8.426;99.512;2022-10-22T13:43:02;16.15;;;9.18;;
36797;SDS011;22748;8.426;99.512;2022-10-22T13:45:33;10.88;;;7.90;;
36797;SDS011;22748;8.426;99.512;2022-10-22T13:48:03;17.75;;;8.20;;
36797;SDS011;22748;8.426;99.512;2022-10-22T13:50:33;13.00;;;7.72;;
36797;SDS011;22748;8.426;99.512;2022-10-22T13:53:04;11.45;;;5.85;;
36797;SDS011;22748;8.426;99.512;2022-10-22T13:55:34;12.43;;;5.88;;
36797;SDS011;22748;8.426;99.512;2022-10-22T13:58:08;12.23;;;6.45;;
36797;SDS011;22748;8.426;99.512;2022-10-22T14:00:39;8.55;;;5.70;;
36797;SDS011;22748;8.426;99.512;2022-10-22T14:03:11;7.85;;;5.43;;
36797;SDS011;22748;8.426;99.512;2022-10-22T14:05:44;10.52;;;5.00;;
36797;SDS011;22748;8.426;99.512;2022-10-22T14:13:16;8.40;;;4.18;;
36797;SDS011;22748;8.426;99.512;2022-10-22T14:15:47;9.10;;;4.40;;
36797;SDS011;22748;8.426;99.512;2022-10-22T14:18:19;9.93;;;3.97;;
36797;SDS011;22748;8.426;99.512;2022-10-22T14:20:53;7.22;;;3.33;;
36797;SDS011;22748;8.426;99.512;2022-10-22T14:23:27;7.50;;;3.63;;
36797;SDS011;22748;8.426;99.512;2022-10-22T14:25:58;7.93;;;3.95;;
36797;SDS011;22748;8.426;99.512;2022-10-22T14:28:29;10.52;;;3.92;;
36797;SDS011;22748;8.426;99.512;2022-10-22T14:30:58;8.50;;;4.00;;
36797;SDS011;22748;8.426;99.512;2022-10-22T14:33:28;8.18;;;4.10;;
36797;SDS011;22748;8.426;99.512;2022-10-22T14:36:00;10.82;;;4.07;;
36797;SDS011;22748;8.426;99.512;2022-10-22T14:38:32;7.60;;;4.30;;
36797;SDS011;22748;8.426;99.512;2022-10-22T14:41:07;5.30;;;3.55;;
36797;SDS011;22748;8.426;99.512;2022-10-22T14:43:47;8.15;;;4.38;;
36797;SDS011;22748;8.426;99.512;2022-10-22T14:46:18;6.30;;;4.20;;
36797;SDS011;22748;8.426;99.512;2022-10-22T14:48:49;12.25;;;7.05;;
36797;SDS011;22748;8.426;99.512;2022-10-22T14:51:20;12.93;;;8.55;;
36797;SDS011;22748;8.426;99.512;2022-10-22T14:53:51;14.00;;;10.23;;
36797;SDS011;22748;8.426;99.512;2022-10-22T14:58:52;11.77;;;7.43;;
36797;SDS011;22748;8.426;99.512;2022-10-22T15:01:23;8.63;;;6.30;;
36797;SDS011;22748;8.426;99.512;2022-10-22T15:03:54;13.55;;;6.50;;
36797;SDS011;22748;8.426;99.512;2022-10-22T15:06:24;8.25;;;4.90;;
36797;SDS011;22748;8.426;99.512;2022-10-22T15:08:55;7.60;;;4.50;;
36797;SDS011;22748;8.426;99.512;2022-10-22T15:11:25;6.40;;;4.35;;
36797;SDS011;22748;8.426;99.512;2022-10-22T15:13:55;6.38;;;3.70;;
36797;SDS011;22748;8.426;99.512;2022-10-22T15:16:26;7.47;;;3.83;;
36797;SDS011;22748;8.426;99.512;2022-10-22T15:18:57;8.32;;;3.85;;
36797;SDS011;22748;8.426;99.512;2022-10-22T15:21:27;8.38;;;3.22;;
36797;SDS011;22748;8.426;99.512;2022-10-22T15:23:59;4.95;;;3.33;;
36797;SDS011;22748;8.426;99.512;2022-10-22T15:26:29;5.45;;;2.97;;
36797;SDS011;22748;8.426;99.512;2022-10-22T15:29:01;6.40;;;3.05;;
36797;SDS011;22748;8.426;99.512;2022-10-22T15:31:41;5.80;;;3.08;;
36797;SDS011;22748;8.426;99.512;2022-10-22T15:34:16;4.35;;;2.65;;
36797;SDS011;22748;8.426;99.512;2022-10-22T15:36:49;8.00;;;3.22;;
36797;SDS011;22748;8.426;99.512;2022-10-22T15:39:23;4.78;;;2.67;;
36797;SDS011;22748;8.426;99.512;2022-10-22T15:41:55;5.18;;;2.50;;
36797;SDS011;22748;8.426;99.512;2022-10-22T15:44:27;4.88;;;2.50;;
36797;SDS011;22748;8.426;99.512;2022-10-22T15:46:57;5.25;;;2.50;;
36797;SDS011;22748;8.426;99.512;2022-10-22T15:49:29;4.10;;;2.00;;
36797;SDS011;22748;8.426;99.512;2022-10-22T15:52:01;5.13;;;2.75;;
36797;SDS011;22748;8.426;99.512;2022-10-22T15:54:32;4.53;;;2.30;;
36797;SDS011;22748;8.426;99.512;2022-10-22T15:57:02;7.07;;;2.92;;
36797;SDS011;22748;8.426;99.512;2022-10-22T15:59:34;8.07;;;2.80;;
36797;SDS011;22748;8.426;99.512;2022-10-22T16:02:05;5.72;;;2.47;;
36797;SDS011;22748;8.426;99.512;2022-10-22T16:07:06;6.20;;;2.40;;
36797;SDS011;22748;8.426;99.512;2022-10-22T16:09:37;5.10;;;2.17;;
36797;SDS011;22748;8.426;99.512;2022-10-22T16:12:07;6.03;;;2.30;;